createdAt,value
2018-03-22T00:00:44.978Z,22.70
2018-03-22T00:03:14.423Z,21.67
2018-03-22T00:05:46.589Z,22.37
2018-03-22T00:08:14.706Z,21.40
2018-03-22T00:10:45.977Z,21.70
2018-03-22T00:13:16.822Z,22.07
2018-03-22T00:15:44.499Z,21.70
2018-03-22T00:18:17.022Z,22.40
2018-03-22T00:20:46.835Z,22.27
2018-03-22T00:23:28.599Z,22.13
2018-03-22T00:25:56.871Z,24.27
2018-03-22T00:28:24.486Z,24.50
2018-03-22T00:30:51.987Z,23.60
2018-03-22T00:33:19.516Z,24.17
2018-03-22T00:35:47.778Z,23.77
2018-03-22T00:38:15.311Z,23.70
2018-03-22T00:40:46.619Z,24.67
2018-03-22T00:43:16.761Z,23.37
2018-03-22T00:45:46.969Z,23.73
2018-03-22T00:48:16.826Z,22.80
2018-03-22T00:50:45.134Z,22.07
2018-03-22T00:53:14.055Z,22.97
2018-03-22T00:55:41.811Z,21.03
2018-03-22T00:58:16.074Z,21.17
2018-03-22T01:00:44.577Z,20.60
2018-03-22T01:03:15.969Z,20.67
2018-03-22T01:05:46.794Z,21.73
2018-03-22T01:08:14.754Z,19.77
2018-03-22T01:10:53.502Z,21.33
2018-03-22T01:13:20.998Z,19.60
2018-03-22T01:15:48.519Z,19.00
2018-03-22T01:18:16.179Z,19.00
2018-03-22T01:20:46.665Z,20.57
2018-03-22T01:23:17.182Z,20.17
2018-03-22T01:25:44.978Z,19.30
2018-03-22T01:28:13.066Z,20.47
2018-03-22T01:30:45.094Z,19.40
2018-03-22T01:33:16.533Z,18.07
2018-03-22T01:35:46.550Z,19.63
2018-03-22T01:38:17.046Z,18.57
2018-03-22T01:40:45.206Z,18.00
2018-03-22T01:43:23.513Z,17.60
2018-03-22T01:45:51.029Z,19.40
2018-03-22T01:48:18.528Z,17.40
2018-03-22T01:50:46.988Z,18.00
2018-03-22T01:53:15.059Z,16.60
2018-03-22T01:55:58.578Z,18.57
2018-03-22T01:58:26.092Z,18.00
2018-03-22T02:00:53.617Z,17.33
2018-03-22T02:03:21.158Z,17.07
2018-03-22T02:05:48.658Z,18.07
2018-03-22T02:08:17.046Z,16.50
2018-03-22T02:10:46.890Z,17.57
2018-03-22T02:13:16.087Z,17.10
2018-03-22T02:15:46.288Z,18.90
2018-03-22T02:18:16.738Z,17.20
2018-03-22T02:20:45.364Z,16.30
2018-03-22T02:23:18.582Z,16.90
2018-03-22T02:25:46.130Z,17.37
2018-03-22T02:28:16.761Z,17.57
2018-03-22T02:30:46.726Z,18.53
2018-03-22T02:33:15.611Z,17.93
2018-03-22T02:35:44.078Z,17.90
2018-03-22T02:38:16.634Z,18.07
2018-03-22T02:40:47.103Z,19.10
2018-03-22T02:43:16.982Z,18.43
2018-03-22T02:45:46.779Z,18.00
2018-03-22T02:48:16.649Z,18.10
2018-03-22T02:50:46.973Z,21.33
2018-03-22T02:53:16.218Z,19.30
2018-03-22T02:55:44.854Z,20.17
2018-03-22T02:58:15.739Z,20.07
2018-03-22T03:00:46.785Z,18.00
2018-03-22T03:03:14.650Z,21.20
2018-03-22T03:05:47.082Z,20.03
2018-03-22T03:08:16.939Z,20.63
2018-03-22T03:10:47.009Z,19.07
2018-03-22T03:13:14.814Z,20.67
2018-03-22T03:15:43.993Z,20.50
2018-03-22T03:18:15.113Z,21.17
2018-03-22T03:20:44.066Z,21.40
2018-03-22T03:23:13.811Z,21.50
2018-03-22T03:25:46.825Z,23.33
2018-03-22T03:28:17.126Z,22.13
2018-03-22T03:30:47.158Z,22.53
2018-03-22T03:33:16.697Z,23.73
2018-03-22T03:35:44.841Z,23.67
2018-03-22T03:38:16.214Z,23.60
2018-03-22T03:40:46.979Z,23.77
2018-03-22T03:43:14.995Z,24.43
2018-03-22T03:45:44.191Z,25.13
2018-03-22T03:48:14.117Z,23.60
2018-03-22T03:50:47.002Z,23.50
2018-03-22T03:53:14.830Z,24.10
2018-03-22T03:55:46.982Z,23.50
2018-03-22T03:58:16.787Z,24.80
2018-03-22T04:00:46.770Z,24.43
2018-03-22T04:03:14.674Z,25.13
2018-03-22T04:05:46.695Z,24.40
2018-03-22T04:08:15.773Z,25.40
2018-03-22T04:10:45.090Z,25.33
2018-03-22T04:13:16.818Z,26.67
2018-03-22T04:15:45.217Z,25.43
2018-03-22T04:18:14.517Z,25.47
2018-03-22T04:20:46.793Z,25.87
2018-03-22T04:23:15.869Z,25.60
2018-03-22T04:25:45.089Z,25.83
2018-03-22T04:28:17.401Z,26.43
2018-03-22T04:30:46.874Z,25.87
2018-03-22T04:33:17.246Z,26.60
2018-03-22T04:35:45.278Z,25.53
2018-03-22T04:38:16.305Z,24.53
2018-03-22T04:40:46.854Z,25.10
2018-03-22T04:43:17.210Z,25.87
2018-03-22T04:45:47.094Z,25.53
2018-03-22T04:48:16.737Z,24.60
2018-03-22T04:50:46.226Z,24.20
2018-03-22T04:53:14.947Z,24.80
2018-03-22T04:55:44.788Z,24.87
2018-03-22T04:58:22.764Z,25.27
2018-03-22T05:00:50.277Z,24.97
2018-03-22T05:03:17.789Z,23.03
2018-03-22T05:05:47.309Z,25.13
2018-03-22T05:08:17.428Z,24.87
2018-03-22T05:10:47.142Z,26.30
2018-03-22T05:13:16.947Z,25.30
2018-03-22T05:15:47.454Z,24.07
2018-03-22T05:18:23.992Z,23.53
2018-03-22T05:20:51.613Z,26.33
2018-03-22T05:23:20.165Z,24.50
2018-03-22T05:25:47.760Z,25.87
2018-03-22T05:28:17.337Z,25.37
2018-03-22T05:30:45.069Z,25.03
2018-03-22T05:33:14.413Z,24.50
2018-03-22T05:35:42.859Z,25.00
2018-03-22T05:38:21.766Z,24.20
2018-03-22T05:40:50.552Z,25.80
2018-03-22T05:43:18.061Z,26.37
2018-03-22T05:45:47.333Z,27.03
2018-03-22T05:48:16.658Z,24.47
2018-03-22T05:50:46.538Z,25.83
2018-03-22T05:53:17.289Z,28.17
2018-03-22T05:55:47.168Z,26.53
2018-03-22T05:58:17.315Z,28.43
2018-03-22T06:00:48.117Z,26.77
2018-03-22T06:03:17.661Z,27.50
2018-03-22T06:05:45.205Z,26.40
2018-03-22T06:08:17.134Z,27.50
2018-03-22T06:10:46.342Z,27.70
2018-03-22T06:13:17.139Z,26.17
2018-03-22T06:15:45.037Z,26.07
2018-03-22T06:18:17.025Z,25.37
2018-03-22T06:20:47.743Z,25.37
2018-03-22T06:23:17.033Z,27.07
2018-03-22T06:25:47.542Z,27.30
2018-03-22T06:28:16.463Z,25.80
2018-03-22T06:30:46.354Z,26.43
2018-03-22T06:33:16.602Z,26.30
2018-03-22T06:35:51.205Z,26.87
2018-03-22T06:38:22.753Z,26.03
2018-03-22T06:40:50.290Z,26.93
2018-03-22T06:43:18.665Z,28.20
2018-03-22T06:45:46.949Z,29.90
2018-03-22T06:48:15.773Z,31.23
2018-03-22T06:50:46.280Z,29.10
2018-03-22T06:53:16.424Z,30.83
2018-03-22T06:55:59.659Z,30.87
2018-03-22T06:58:27.345Z,32.50
2018-03-22T07:00:55.942Z,35.73
2018-03-22T07:03:24.232Z,32.30
2018-03-22T07:05:51.736Z,31.03
2018-03-22T07:08:19.264Z,33.60
2018-03-22T07:10:52.745Z,34.33
2018-03-22T07:13:20.266Z,31.67
2018-03-22T07:15:47.780Z,33.17
2018-03-22T07:18:20.858Z,32.30
2018-03-22T07:20:48.445Z,32.23
2018-03-22T07:23:16.881Z,33.60
2018-03-22T07:25:49.246Z,28.80
2018-03-22T07:28:17.095Z,27.83
2018-03-22T07:30:45.355Z,31.03
2018-03-22T07:33:13.769Z,31.90
2018-03-22T07:35:43.726Z,31.10
2018-03-22T07:38:13.195Z,32.23
2018-03-22T07:40:42.292Z,32.87
2018-03-22T07:43:16.854Z,31.97
2018-03-22T07:45:44.359Z,34.27
2018-03-22T07:48:22.829Z,31.60
2018-03-22T07:50:50.344Z,31.83
2018-03-22T07:53:18.610Z,32.17
2018-03-22T07:55:46.937Z,25.90
2018-03-22T07:58:14.773Z,28.27
2018-03-22T08:00:43.278Z,28.63
2018-03-22T08:03:15.849Z,28.00
2018-03-22T08:05:47.124Z,28.90
2018-03-22T08:08:15.629Z,24.20
2018-03-22T08:10:46.798Z,27.17
2018-03-22T08:13:14.900Z,28.40
2018-03-22T08:15:45.785Z,28.03
2018-03-22T08:18:15.556Z,27.50
2018-03-22T08:20:44.594Z,27.87
2018-03-22T08:23:15.277Z,26.53
2018-03-22T08:25:45.522Z,27.23
2018-03-22T08:28:15.311Z,25.90
2018-03-22T08:30:42.841Z,25.70
2018-03-22T08:33:11.106Z,23.13
2018-03-22T08:35:38.706Z,23.43
2018-03-22T08:38:07.031Z,22.43
2018-03-22T08:40:34.909Z,26.43
2018-03-22T08:43:04.513Z,22.20
2018-03-22T08:45:34.496Z,24.00
2018-03-22T08:48:04.660Z,25.17
2018-03-22T08:50:34.882Z,23.60
2018-03-22T08:53:04.901Z,21.00
2018-03-22T08:55:34.420Z,23.50
2018-03-22T08:58:04.748Z,23.40
2018-03-22T09:00:34.546Z,21.40
2018-03-22T09:03:04.374Z,24.10
2018-03-22T09:05:35.172Z,21.70
2018-03-22T09:08:04.629Z,21.63
2018-03-22T09:10:33.859Z,21.20
2018-03-22T09:13:04.502Z,21.30
2018-03-22T09:15:34.741Z,25.37
2018-03-22T09:18:31.755Z,25.00
2018-03-22T09:21:04.627Z,22.43
2018-03-22T09:23:38.179Z,23.90
2018-03-22T09:26:05.898Z,25.47
2018-03-22T09:28:34.606Z,25.23
2018-03-22T09:31:04.137Z,26.10
2018-03-22T09:33:34.521Z,24.00
2018-03-22T09:36:04.617Z,23.80
2018-03-22T09:38:34.885Z,23.13
2018-03-22T09:41:04.678Z,25.93
2018-03-22T09:43:34.729Z,24.63
2018-03-22T09:46:04.889Z,22.50
2018-03-22T09:48:34.734Z,22.27
2018-03-22T09:51:04.643Z,22.90
2018-03-22T09:53:34.998Z,21.83
2018-03-22T09:56:02.650Z,24.53
2018-03-22T09:58:35.719Z,22.47
2018-03-22T10:01:04.583Z,21.33
2018-03-22T10:03:34.016Z,21.60
2018-03-22T10:06:04.618Z,22.43
2018-03-22T10:08:33.273Z,23.30
2018-03-22T10:11:01.714Z,23.10
2018-03-22T10:13:29.372Z,22.03
2018-03-22T10:16:00.099Z,22.13
2018-03-22T10:18:27.737Z,22.87
2018-03-22T10:20:58.991Z,22.17
2018-03-22T10:23:28.507Z,22.50
2018-03-22T10:26:04.654Z,19.23
2018-03-22T10:28:35.075Z,21.83
2018-03-22T10:31:05.233Z,20.17
2018-03-22T10:33:35.194Z,20.97
2018-03-22T10:36:05.009Z,21.80
2018-03-22T10:38:35.491Z,20.77
2018-03-22T10:41:05.261Z,20.93
2018-03-22T10:43:35.073Z,20.50
2018-03-22T10:46:03.370Z,20.13
2018-03-22T10:48:32.176Z,19.53
2018-03-22T10:51:04.292Z,19.13
2018-03-22T10:53:34.867Z,17.37
2018-03-22T10:56:05.137Z,16.97
2018-03-22T10:58:34.871Z,15.73
2018-03-22T11:01:10.763Z,17.17
2018-03-22T11:03:44.133Z,16.90
2018-03-22T11:06:11.692Z,17.77
2018-03-22T11:08:39.999Z,15.67
2018-03-22T11:11:07.526Z,15.03
2018-03-22T11:13:35.029Z,15.23
2018-03-22T11:16:04.233Z,16.27
2018-03-22T11:18:35.179Z,14.53
2018-03-22T11:21:04.972Z,14.03
2018-03-22T11:23:32.657Z,14.20
2018-03-22T11:26:04.833Z,13.40
2018-03-22T11:28:35.003Z,14.53
2018-03-22T11:31:08.924Z,13.77
2018-03-22T11:33:38.777Z,13.80
2018-03-22T11:36:13.960Z,13.10
2018-03-22T11:38:42.045Z,12.83
2018-03-22T11:41:11.084Z,14.70
2018-03-22T11:43:40.324Z,14.50
2018-03-22T11:46:20.181Z,13.20
2018-03-22T11:48:47.673Z,13.63
2018-03-22T11:51:15.713Z,14.57
2018-03-22T11:53:44.815Z,14.80
2018-03-22T11:56:15.110Z,14.03
2018-03-22T11:58:44.368Z,14.67
2018-03-22T12:01:13.486Z,15.90
2018-03-22T12:03:42.663Z,14.97
2018-03-22T12:06:14.220Z,16.30
2018-03-22T12:08:44.721Z,16.43
2018-03-22T12:11:15.777Z,16.27
2018-03-22T12:13:43.536Z,16.90
2018-03-22T12:16:23.782Z,17.40
2018-03-22T12:18:52.802Z,16.63
2018-03-22T12:21:20.409Z,16.40
2018-03-22T12:23:47.901Z,18.83
2018-03-22T12:26:15.419Z,17.80
2018-03-22T12:28:43.622Z,18.33
2018-03-22T12:31:11.914Z,18.97
2018-03-22T12:33:40.196Z,17.67
2018-03-22T12:36:08.836Z,18.87
2018-03-22T12:38:36.334Z,17.53
2018-03-22T12:41:04.173Z,17.20
2018-03-22T12:43:32.902Z,18.20
2018-03-22T12:46:08.382Z,17.90
2018-03-22T12:48:38.873Z,20.03
2018-03-22T12:51:06.366Z,18.37
2018-03-22T12:53:34.105Z,18.77
2018-03-22T12:56:05.746Z,18.37
2018-03-22T12:58:35.962Z,19.63
2018-03-22T13:01:12.101Z,17.63
2018-03-22T13:03:40.401Z,18.43
2018-03-22T13:06:07.896Z,18.40
2018-03-22T13:08:36.189Z,16.80
2018-03-22T13:11:06.109Z,19.50
2018-03-22T13:13:34.548Z,18.00
2018-03-22T13:16:05.985Z,18.90
2018-03-22T13:18:36.245Z,18.57
2018-03-22T13:21:05.958Z,17.33
2018-03-22T13:23:34.598Z,17.10
2018-03-22T13:26:04.329Z,18.07
2018-03-22T13:28:41.869Z,17.93
2018-03-22T13:31:09.392Z,18.07
2018-03-22T13:33:37.194Z,16.50
2018-03-22T13:36:05.477Z,16.53
2018-03-22T13:38:37.068Z,16.97
2018-03-22T13:41:06.281Z,16.03
2018-03-22T13:43:36.465Z,16.40
2018-03-22T13:46:19.298Z,15.97
2018-03-22T13:48:46.936Z,14.60
2018-03-22T13:51:14.436Z,14.93
2018-03-22T13:53:43.601Z,14.30
2018-03-22T13:56:11.089Z,14.03
2018-03-22T13:58:39.368Z,16.63
2018-03-22T14:01:06.952Z,16.20
2018-03-22T14:03:36.576Z,16.43
2018-03-22T14:06:06.409Z,16.40
2018-03-22T14:08:36.560Z,16.77
2018-03-22T14:11:04.214Z,16.87
2018-03-22T14:13:34.467Z,14.80
2018-03-22T14:16:05.927Z,16.07
2018-03-22T14:18:35.017Z,17.07
2018-03-22T14:21:03.436Z,18.53
2018-03-22T14:23:34.810Z,18.53
2018-03-22T14:26:04.459Z,18.50
2018-03-22T14:28:34.630Z,20.00
2018-03-22T14:31:04.128Z,19.80
2018-03-22T14:33:34.159Z,18.93
2018-03-22T14:36:04.688Z,19.17
2018-03-22T14:38:34.242Z,19.43
2018-03-22T14:41:06.148Z,18.50
2018-03-22T14:43:45.298Z,19.23
2018-03-22T14:46:12.821Z,18.63
2018-03-22T14:48:40.331Z,20.00
2018-03-22T14:51:08.609Z,22.00
2018-03-22T14:53:36.824Z,23.70
2018-03-22T14:56:06.797Z,22.83
2018-03-22T14:58:36.413Z,20.60
2018-03-22T15:01:04.632Z,22.40
2018-03-22T15:03:35.561Z,22.50
2018-03-22T15:06:05.704Z,21.33
2018-03-22T15:08:34.679Z,21.93
2018-03-22T15:11:13.578Z,23.30
2018-03-22T15:13:41.687Z,21.77
2018-03-22T15:16:10.176Z,20.20
2018-03-22T15:18:37.674Z,19.67
2018-03-22T15:21:05.438Z,19.90
2018-03-22T15:23:34.753Z,21.30
2018-03-22T15:26:06.555Z,19.37
2018-03-22T15:28:39.364Z,19.40
2018-03-22T15:31:06.893Z,18.57
2018-03-22T15:33:35.010Z,20.03
2018-03-22T15:36:03.890Z,20.00
2018-03-22T15:38:43.626Z,20.50
2018-03-22T15:41:11.140Z,19.37
2018-03-22T15:43:40.166Z,19.73
2018-03-22T15:46:07.741Z,20.60
2018-03-22T15:48:37.037Z,20.67
2018-03-22T15:51:11.786Z,20.00
2018-03-22T15:53:40.064Z,18.40
2018-03-22T15:56:07.650Z,20.57
2018-03-22T15:58:37.194Z,18.40
2018-03-22T16:01:08.678Z,18.03
2018-03-22T16:03:37.188Z,19.70
2018-03-22T16:06:04.944Z,19.47
2018-03-22T16:08:36.633Z,19.07
2018-03-22T16:11:19.888Z,17.87
2018-03-22T16:13:47.422Z,18.27
2018-03-22T16:16:14.929Z,19.00
2018-03-22T16:18:42.433Z,18.33
2018-03-22T16:21:17.264Z,18.10
2018-03-22T16:23:44.792Z,17.60
2018-03-22T16:26:12.961Z,18.03
2018-03-22T16:28:41.259Z,17.80
2018-03-22T16:31:09.536Z,17.00
2018-03-22T16:33:37.126Z,17.60
2018-03-22T16:36:07.214Z,18.97
2018-03-22T16:38:38.461Z,17.77
2018-03-22T16:41:07.450Z,17.57
2018-03-22T16:43:35.750Z,17.50
2018-03-22T16:46:07.327Z,16.80
2018-03-22T16:48:34.954Z,16.70
2018-03-22T16:51:06.849Z,16.67
2018-03-22T16:53:36.858Z,16.87
2018-03-22T16:56:07.015Z,18.20
2018-03-22T16:58:37.347Z,18.37
2018-03-22T17:01:07.360Z,17.97
2018-03-22T17:03:35.963Z,15.90
2018-03-22T17:06:14.044Z,17.10
2018-03-22T17:08:41.621Z,16.87
2018-03-22T17:11:09.118Z,17.67
2018-03-22T17:13:36.630Z,18.30
2018-03-22T17:16:14.065Z,17.90
2018-03-22T17:18:42.367Z,16.03
2018-03-22T17:21:09.865Z,18.70
2018-03-22T17:23:40.019Z,16.40
2018-03-22T17:26:07.558Z,16.80
2018-03-22T17:28:36.301Z,19.20
2018-03-22T17:31:04.629Z,20.00
2018-03-22T17:33:37.200Z,19.00
2018-03-22T17:36:07.407Z,19.37
2018-03-22T17:38:37.561Z,17.60
2018-03-22T17:41:07.570Z,17.50
2018-03-22T17:43:35.178Z,17.60
2018-03-22T17:46:03.168Z,17.77
2018-03-22T17:48:36.715Z,17.53
2018-03-22T17:51:07.426Z,18.60
2018-03-22T17:53:42.681Z,18.80
2018-03-22T17:56:10.302Z,17.93
2018-03-22T17:58:37.862Z,20.27
2018-03-22T18:01:11.688Z,18.77
2018-03-22T18:03:39.244Z,16.60
2018-03-22T18:06:14.507Z,16.80
2018-03-22T18:08:42.813Z,16.50
2018-03-22T18:11:10.308Z,20.07
2018-03-22T18:13:37.861Z,18.30
2018-03-22T18:16:07.427Z,19.13
2018-03-22T18:18:37.955Z,18.27
2018-03-22T18:21:10.196Z,27.40
2018-03-22T18:23:38.478Z,26.83
2018-03-22T18:26:07.579Z,27.20
2018-03-22T18:28:36.004Z,30.60
2018-03-22T18:31:04.108Z,29.33
2018-03-22T18:33:36.445Z,39.13
2018-03-22T18:36:17.115Z,41.10
2018-03-22T18:38:44.609Z,40.20
2018-03-22T18:41:12.894Z,39.03
2018-03-22T18:43:42.638Z,41.67
2018-03-22T18:46:10.153Z,43.30
2018-03-22T18:49:04.275Z,48.37
2018-03-22T18:51:43.235Z,52.20
2018-03-22T18:54:10.739Z,68.70
2018-03-22T18:56:38.261Z,55.87
2018-03-22T18:59:07.821Z,80.20
2018-03-22T19:01:37.815Z,51.67
2018-03-22T19:04:08.998Z,45.57
2018-03-22T19:06:41.851Z,47.47
2018-03-22T19:09:09.386Z,63.50
2018-03-22T19:11:37.857Z,42.30
2018-03-22T19:14:06.972Z,41.50
2018-03-22T19:16:39.213Z,36.50
2018-03-22T19:19:07.914Z,41.53
2018-03-22T19:21:37.696Z,41.17
2018-03-22T19:24:07.917Z,40.93
2018-03-22T20:12:44.713Z,32.40
2018-03-22T20:15:12.213Z,35.97
2018-03-22T20:17:39.725Z,34.53
2018-03-22T20:20:07.836Z,34.07
2018-03-22T20:22:36.179Z,34.20
2018-03-22T20:25:07.253Z,34.87
2018-03-22T20:27:37.172Z,32.73
2018-03-22T20:30:07.809Z,29.37
2018-03-22T20:32:37.823Z,31.93
2018-03-22T20:35:07.800Z,31.40
2018-03-22T20:37:37.840Z,30.83
2018-03-22T20:40:07.276Z,31.23
2018-03-22T20:42:37.874Z,32.33
2018-03-22T20:45:08.353Z,33.97
2018-03-22T20:47:38.253Z,33.40
2018-03-22T20:50:07.750Z,32.63
2018-03-22T20:52:38.093Z,33.93
2018-03-22T20:55:08.051Z,33.90
2018-03-22T20:57:38.148Z,34.67
2018-03-22T21:00:07.104Z,32.77
2018-03-22T21:02:37.274Z,33.03
2018-03-22T21:05:06.970Z,34.53
2018-03-22T21:07:37.255Z,34.97
2018-03-22T21:10:07.168Z,36.00
2018-03-22T21:12:37.221Z,34.33
2018-03-22T21:15:10.993Z,42.13
2018-03-22T21:17:38.534Z,42.30
2018-03-22T21:20:06.475Z,39.60
2018-03-22T21:22:44.920Z,41.67
2018-03-22T21:25:12.429Z,38.13
2018-03-22T21:27:39.942Z,40.57
2018-03-22T21:30:07.532Z,43.90
2018-03-22T21:32:35.410Z,43.00
2018-03-22T21:35:04.969Z,46.00
2018-03-22T21:37:33.533Z,43.40
2018-03-22T21:40:02.245Z,38.57
2018-03-22T21:42:40.474Z,38.37
2018-03-22T21:45:08.020Z,37.40
2018-03-22T21:47:35.512Z,36.73
2018-03-22T21:50:03.790Z,34.37
2018-03-22T21:52:43.456Z,36.53
2018-03-22T21:55:10.969Z,33.70
2018-03-22T21:57:42.639Z,32.80
2018-03-22T22:00:10.162Z,33.07
2018-03-22T22:02:37.710Z,34.03
2018-03-22T22:05:07.233Z,34.33
2018-03-22T22:07:36.009Z,34.40
2018-03-22T22:10:05.430Z,33.17
2018-03-22T22:12:35.467Z,36.27
2018-03-22T22:15:08.516Z,34.20
2018-03-22T22:17:36.564Z,31.23
2018-03-22T22:20:06.399Z,33.87
2018-03-22T22:22:45.882Z,33.43
2018-03-22T22:25:13.411Z,35.00
2018-03-22T22:27:41.677Z,34.50
2018-03-22T22:30:09.175Z,34.30
2018-03-22T22:32:37.470Z,33.73
2018-03-22T22:35:06.501Z,34.40
2018-03-22T22:37:36.102Z,34.90
2018-03-22T22:40:15.697Z,35.00
2018-03-22T22:42:43.214Z,34.10
2018-03-22T22:45:10.723Z,36.50
2018-03-22T22:47:48.078Z,33.07
2018-03-22T22:50:15.597Z,31.40
2018-03-22T22:52:43.162Z,35.23
2018-03-22T22:55:20.450Z,32.67
2018-03-22T22:57:52.237Z,33.37
2018-03-22T23:00:34.374Z,34.20
2018-03-22T23:03:05.280Z,32.90
2018-03-22T23:05:34.565Z,33.00
2018-03-22T23:08:05.107Z,36.17
2018-03-22T23:10:35.013Z,32.93
2018-03-22T23:13:05.401Z,33.20
2018-03-22T23:15:41.469Z,34.90
2018-03-22T23:18:09.075Z,33.50
2018-03-22T23:20:37.349Z,32.03
2018-03-22T23:23:05.828Z,33.07
2018-03-22T23:25:35.495Z,34.77
2018-03-22T23:28:04.685Z,34.93
2018-03-22T23:30:35.853Z,33.43
2018-03-22T23:33:05.542Z,34.70
2018-03-22T23:35:35.636Z,35.00
2018-03-22T23:38:05.525Z,32.07
2018-03-22T23:40:35.661Z,32.70
2018-03-22T23:43:05.390Z,35.20
2018-03-22T23:45:35.668Z,34.20
2018-03-22T23:48:05.552Z,31.23
2018-03-22T23:50:35.536Z,30.77
2018-03-22T23:53:05.321Z,34.27
2018-03-22T23:55:40.009Z,34.47
2018-03-22T23:58:07.556Z,35.17
